LPPDLPMA

Guest
Details From LPPD - PONTA DELGADA
To LPMA - Madeira
Flight Number -
Tags generated
Created
Modified
Stats Distance 545 nm / 1,009 km
Max Altitude 35,000 ft / 10,668 m
Waypoints 6
Social Downloads 3
Likes 0
Share VATSIM

Download

Looking for another format? Having issues loading an existing format? Contact us
Advertisement - Login to hide

Notes

Basic altitude profile: - Ascent Rate: 2500ft/min - Ascent Speed: 250kts - Cruise Altitude: 33000ft - Cruise Speed: 420kts - Descent Rate: 1500ft/min - Descent Speed: 250kts Options: - Use NATs: yes - Use PACOTS: yes - Use low airways: no - Use high airways: yes

Route

LPPD VSM H104 ETROX 3500N02000W IRKID LPMA

ID Type Via Altitude Latitude Longitude Leg Dist Tot Dist Heading (true) Name
O LPPD APT - 0 ft / 0 m 37.74208˚ -25.69774˚ - 0 nm - PONTA DELGADA
VSM VOR - 19,000 ft / 5,791 m 36.96278˚ -25.16639˚ 53 nm 53 nm 151° / 152° SANTA MARIA VOR-DME
ETROX FIX H104 (AWY-HI) 27,500 ft / 8,382 m 36.40250˚ -24.02444˚ 64 nm 117 nm 121° / 122° -
3500N02000W LATLON - 35,000 ft / 10,668 m 35.00000˚ -20.00000˚ 213 nm 331 nm 112° / 114° -
IRKID FIX - 21,000 ft / 6,401 m 33.92500˚ -18.06917˚ 115 nm 446 nm 123° / 125° -
O LPMA APT - 0 ft / 0 m 32.69770˚ -16.77445˚ 98 nm 544 nm 138° / 139° Madeira

Altitude Profile

Advertisement - Login to hide

Weather


0- 5 10 15 20 25 30 35+ Temperature / ° C

Clouds and Precipitation
Forecast for 2018-05-25 06:00 UTC. Updated 11 minutes ago

Ground ~20,000 ft ~40,000 ft Winds

LPPD

Details ICAO LPPD (PDL)
Name PONTA DELGADA
Region Portugal
Timezone Atlantic/Azores (UTC+0.0)
Stats Elevation 259 ft / 79 m (AMSL)
Location 37.742078° -25.697736°
Runways 1
Magnetic Variation 8.299° W

METAR

LPPD 250530Z 06003KT 030V110 9999 FEW016 SCT035 15/13 Q1026

Decode

TAF

TAF LPPD 242300Z 2500/2524 10007KT 9999 BKN015 BECMG 2504/2507 VRB05KT BKN020 BECMG 2509/2511 SCT020 PROB30 2509/2512 04008KT TEMPO 2511/2518 FEW018 BKN040 TEMPO 2512/2517 12008KT

Decode

Departure Runways

ID Width Length Bearing (true) Bearing (mag) Surface Threshold Offset Overrun Length
12 148 ft / 45 m 8,179 ft / 2,493 m 111.77° 120.07° Asphalt 0 ft / 0 m 375 ft / 114 m
30 148 ft / 45 m 8,179 ft / 2,493 m 291.79° 300.09° Asphalt 787 ft / 240 m 0 ft / 0 m

LPMA

Details ICAO LPMA (FNC)
Name Madeira
Region Portugal
Timezone Atlantic/Madeira (UTC+1.0)
Stats Elevation 192 ft / 59 m (AMSL)
Location 32.697704° -16.774449°
Runways 1
Magnetic Variation 4.927° W

METAR

LPMA 250530Z 36008KT 320V040 9999 BKN015 17/12 Q1019

Decode

TAF

TAF LPMA 242300Z 2500/2524 35008KT 9999 SCT015 TEMPO 2500/2508 VRB05KT BKN015 BECMG 2508/2511 01015KT TEMPO 2508/2524 SCT015 BKN030 TEMPO 2511/2518 01018G28KT

Decode

Destination Runways

ID Width Length Bearing (true) Bearing (mag) Surface Threshold Offset Overrun Length
05 141 ft / 43 m 8,683 ft / 2,647 m 42.98° 47.91° Asphalt 472 ft / 144 m 0 ft / 0 m
23 141 ft / 43 m 8,683 ft / 2,647 m 222.99° 227.92° Asphalt 466 ft / 142 m 0 ft / 0 m

Popular Alternatives